You are not logged in, Click here to log in
仁川國際機場ICN / RKSI 韓國首都首爾
ICAO: RKSI Country: 韓國首都首爾
Latitude: 37.4602 Longitude: 126.441
Total Arrivals: 58 Total Departures: 52
Latest Arrival: TG634 (RCTP-RKSI)Mori. Yang Latest Departure: CI161 (RKSI-RCTP)Mori. Yang
Scenery:
METAR : RKSI 131000Z 19016KT CAVOK 07/01 Q1023 NOSIG

仁川國際機場ICN

You are accessing this site from IP address 100.26.176.182. Virtual Airline. CMS by phpVMS.Website designed by Zumeweb and edited by Theo Bearman.
There is 0 User(s) Online: | and 10 Guest(s) Online.
All information on this site is for fight simulation purposes only. This site is for flight logging for pilots of Virtual Airline&模擬飛行論壇 FlySim only.